Time;durP1;ratioP1;P1;durP2;ratioP2;P2;SDS_P1;SDS_P2;PMS_P1;PMS_P2;Temp;Humidity;BMP_temperature;BMP_pressure;BME280_temperature;BME280_humidity;BME280_pressure;Samples;Min_cycle;Max_cycle;Signal;HPM_P1;HPM_P2
2022/01/22 00:01:56;;;;;;;33.35;16.45;;;;;;;;;;5115977;28;20145;-82
2022/01/22 00:04:22;;;;;;;34.38;17.08;;;;;;;;;;5110993;28;20032;-82
2022/01/22 00:06:51;;;;;;;34.60;17.48;;;;;;;;;;5092000;28;20128;-83
2022/01/22 00:09:17;;;;;;;32.88;16.27;;;;;;;;;;5101169;28;20491;-83
2022/01/22 00:11:51;;;;;;;32.22;17.63;;;;;;;;;;5118690;28;20589;-84
2022/01/22 00:14:23;;;;;;;36.13;16.45;;;;;;;;;;5101040;28;20047;-83
2022/01/22 00:16:50;;;;;;;34.88;17.20;;;;;;;;;;5118412;28;20027;-85
2022/01/22 00:19:16;;;;;;;36.42;17.45;;;;;;;;;;5121660;28;20032;-86
2022/01/22 00:21:42;;;;;;;42.35;18.27;;;;;;;;;;5116440;28;20039;-84
2022/01/22 00:24:11;;;;;;;38.75;17.42;;;;;;;;;;5096315;28;20020;-85
2022/01/22 00:26:37;;;;;;;38.22;17.25;;;;;;;;;;5116248;28;20038;-84
2022/01/22 00:29:03;;;;;;;38.17;17.67;;;;;;;;;;5101366;28;20440;-84
2022/01/22 00:31:29;;;;;;;35.83;18.30;;;;;;;;;;5114027;28;20024;-85
2022/01/22 00:33:55;;;;;;;39.78;17.60;;;;;;;;;;5137327;28;20015;-84
2022/01/22 00:36:21;;;;;;;40.00;17.40;;;;;;;;;;5121804;28;20032;-85
2022/01/22 00:38:47;;;;;;;31.27;16.33;;;;;;;;;;5102436;28;20023;-85
2022/01/22 00:41:13;;;;;;;36.95;17.52;;;;;;;;;;5084222;28;20492;-85
2022/01/22 00:43:39;;;;;;;35.55;17.48;;;;;;;;;;5120922;28;20024;-85
2022/01/22 00:46:05;;;;;;;35.83;16.45;;;;;;;;;;5120513;28;20497;-84
2022/01/22 00:48:33;;;;;;;37.90;17.38;;;;;;;;;;5120320;28;20093;-84
2022/01/22 00:51:00;;;;;;;37.70;18.08;;;;;;;;;;5103875;28;20024;-85
2022/01/22 00:53:26;;;;;;;44.25;18.90;;;;;;;;;;5109218;28;20044;-85
2022/01/22 00:55:52;;;;;;;43.28;18.58;;;;;;;;;;5099922;28;20039;-84
2022/01/22 00:58:18;;;;;;;43.95;18.58;;;;;;;;;;5099537;28;20059;-84
2022/01/22 01:00:44;;;;;;;35.33;18.08;;;;;;;;;;5104253;28;20034;-84
2022/01/22 01:03:10;;;;;;;47.20;19.27;;;;;;;;;;5120765;28;20111;-85
2022/01/22 01:05:40;;;;;;;40.40;19.63;;;;;;;;;;5101984;28;20024;-84
2022/01/22 01:08:06;;;;;;;44.78;19.95;;;;;;;;;;5102542;28;20039;-84
2022/01/22 01:10:32;;;;;;;40.05;19.05;;;;;;;;;;5135220;28;20027;-84
2022/01/22 01:12:58;;;;;;;41.70;19.05;;;;;;;;;;5136398;28;20019;-85
2022/01/22 01:18:06;;;;;;;46.53;19.92;;;;;;;;;;5122580;28;20027;-83
2022/01/22 01:34:16;;;;;;;35.70;18.05;;;;;;;;;;5120891;28;20081;-84
2022/01/22 01:36:43;;;;;;;35.47;17.75;;;;;;;;;;5119307;28;20441;-84
2022/01/22 01:39:14;;;;;;;39.35;17.58;;;;;;;;;;5122170;28;20107;-85
2022/01/22 01:44:18;;;;;;;33.28;17.77;;;;;;;;;;5124957;28;20036;-84
2022/01/22 01:46:45;;;;;;;44.00;18.40;;;;;;;;;;5117519;28;20032;-84
2022/01/22 01:49:12;;;;;;;42.13;18.60;;;;;;;;;;5110398;28;20023;-83
2022/01/22 01:51:38;;;;;;;45.53;17.67;;;;;;;;;;5107106;28;20528;-84
2022/01/22 01:59:21;;;;;;;33.15;17.25;;;;;;;;;;5104801;28;20035;-84
2022/01/22 02:01:47;;;;;;;38.13;18.27;;;;;;;;;;5126696;28;20020;-84
2022/01/22 02:04:14;;;;;;;36.13;18.38;;;;;;;;;;5120863;28;20020;-82
2022/01/22 02:06:40;;;;;;;38.80;17.45;;;;;;;;;;5121589;28;20034;-84
2022/01/22 02:09:08;;;;;;;41.22;18.17;;;;;;;;;;5123465;28;20046;-84
2022/01/22 02:11:36;;;;;;;38.85;18.02;;;;;;;;;;5124179;28;20024;-84
2022/01/22 02:23:33;;;;;;;36.67;17.98;;;;;;;;;;5105948;28;20020;-84
2022/01/22 02:25:09;;;;;;;38.33;15.10;;;;;;;;;;5102751;28;20112;-84
2022/01/22 02:27:35;;;;;;;37.03;17.55;;;;;;;;;;5105190;28;20028;-85
2022/01/22 02:30:01;;;;;;;43.00;16.23;;;;;;;;;;5103675;28;20348;-85
2022/01/22 02:35:24;;;;;;;37.17;15.75;;;;;;;;;;5124797;28;20020;-83
2022/01/22 02:38:00;;;;;;;30.10;15.10;;;;;;;;;;5122857;28;20398;-84
2022/01/22 02:40:30;;;;;;;35.47;15.63;;;;;;;;;;5122702;28;20027;-85
2022/01/22 02:42:56;;;;;;;36.50;15.25;;;;;;;;;;5124550;28;20571;-84
2022/01/22 02:45:23;;;;;;;24.85;14.50;;;;;;;;;;5123912;28;20659;-84
2022/01/22 02:47:50;;;;;;;28.45;15.45;;;;;;;;;;5121590;28;20112;-83
2022/01/22 02:50:16;;;;;;;34.40;13.70;;;;;;;;;;5123419;28;20099;-84
2022/01/22 02:52:42;;;;;;;35.20;14.10;;;;;;;;;;5123852;28;20046;-84
2022/01/22 02:55:08;;;;;;;31.27;14.45;;;;;;;;;;5123557;28;20047;-85
2022/01/22 02:57:35;;;;;;;38.45;15.23;;;;;;;;;;5123555;28;20471;-85
2022/01/22 03:00:04;;;;;;;32.58;14.50;;;;;;;;;;5122335;28;20031;-85
2022/01/22 03:02:30;;;;;;;35.75;15.40;;;;;;;;;;5105423;28;20028;-85
2022/01/22 03:04:57;;;;;;;29.80;14.32;;;;;;;;;;5105948;28;20035;-85
2022/01/22 03:07:24;;;;;;;33.17;14.00;;;;;;;;;;5120097;28;20052;-85
2022/01/22 03:09:52;;;;;;;25.23;14.32;;;;;;;;;;5096926;28;20035;-86
2022/01/22 03:20:34;;;;;;;31.83;15.35;;;;;;;;;;5115528;28;20030;-85
2022/01/22 03:23:11;;;;;;;35.78;15.35;;;;;;;;;;5114594;28;20032;-82
2022/01/22 03:28:23;;;;;;;31.05;13.82;;;;;;;;;;5095162;28;20030;-84
2022/01/22 03:30:49;;;;;;;32.75;14.77;;;;;;;;;;5096071;28;20040;-84
2022/01/22 03:33:19;;;;;;;32.22;14.82;;;;;;;;;;5098015;28;20043;-85
2022/01/22 03:35:50;;;;;;;30.20;14.75;;;;;;;;;;5107225;28;20107;-85
2022/01/22 03:38:16;;;;;;;39.00;15.82;;;;;;;;;;5098786;28;20023;-84
2022/01/22 03:40:48;;;;;;;32.85;14.05;;;;;;;;;;5099880;28;20035;-84
2022/01/22 03:43:14;;;;;;;32.50;15.48;;;;;;;;;;5099294;28;20624;-83
2022/01/22 03:45:40;;;;;;;30.83;14.13;;;;;;;;;;5117837;28;20042;-84
2022/01/22 03:48:06;;;;;;;33.33;13.98;;;;;;;;;;5118027;28;20054;-84
2022/01/22 03:50:33;;;;;;;34.15;15.75;;;;;;;;;;5117071;28;20031;-85
2022/01/22 03:52:59;;;;;;;37.92;15.38;;;;;;;;;;5117989;28;20081;-85
2022/01/22 03:57:57;;;;;;;28.83;13.38;;;;;;;;;;5118634;28;20047;-85
2022/01/22 04:00:23;;;;;;;38.85;15.38;;;;;;;;;;5123728;28;20025;-86
2022/01/22 04:03:25;;;;;;;37.92;14.77;;;;;;;;;;5101473;28;20108;-85
2022/01/22 04:05:58;;;;;;;29.00;13.80;;;;;;;;;;5115961;28;20122;-84
2022/01/22 04:08:24;;;;;;;29.33;14.07;;;;;;;;;;5081193;28;20027;-84
2022/01/22 04:10:50;;;;;;;33.08;14.20;;;;;;;;;;5094601;28;20024;-84
2022/01/22 04:13:18;;;;;;;30.02;13.73;;;;;;;;;;5102279;28;20061;-86
2022/01/22 04:15:46;;;;;;;32.35;14.25;;;;;;;;;;5121578;28;20016;-85
2022/01/22 04:29:01;;;;;;;25.85;13.40;;;;;;;;;;5071691;28;20037;-85
2022/01/22 04:31:27;;;;;;;27.27;13.65;;;;;;;;;;5073588;28;20081;-85
2022/01/22 04:33:53;;;;;;;31.58;13.38;;;;;;;;;;5074221;28;20035;-85
2022/01/22 04:36:19;;;;;;;29.55;13.38;;;;;;;;;;5073331;28;20029;-85
2022/01/22 04:38:45;;;;;;;26.13;13.43;;;;;;;;;;5072515;28;20055;-85
2022/01/22 04:41:11;;;;;;;31.85;14.48;;;;;;;;;;5074198;28;20028;-84
2022/01/22 04:43:39;;;;;;;27.23;13.07;;;;;;;;;;5089269;28;20031;-85
2022/01/22 04:46:13;;;;;;;27.65;13.38;;;;;;;;;;5073151;28;20402;-86
2022/01/22 04:48:52;;;;;;;27.95;13.82;;;;;;;;;;5089218;28;20115;-85
2022/01/22 04:56:48;;;;;;;37.67;14.25;;;;;;;;;;5073007;28;20086;-85
2022/01/22 04:59:14;;;;;;;24.98;13.20;;;;;;;;;;5089805;28;20495;-84
2022/01/22 05:01:40;;;;;;;35.85;14.27;;;;;;;;;;5077043;28;20071;-86
2022/01/22 05:04:06;;;;;;;35.45;14.23;;;;;;;;;;5076808;28;20084;-86
2022/01/22 05:06:32;;;;;;;39.75;14.50;;;;;;;;;;5075405;28;20044;-84
2022/01/22 05:08:58;;;;;;;29.27;12.70;;;;;;;;;;5093701;28;20035;-86
2022/01/22 05:11:24;;;;;;;33.38;12.38;;;;;;;;;;5078665;28;20057;-86
2022/01/22 05:13:51;;;;;;;35.03;13.20;;;;;;;;;;5060067;28;20051;-86
2022/01/22 05:16:18;;;;;;;30.88;12.60;;;;;;;;;;5088164;28;20024;-86
2022/01/22 05:18:54;;;;;;;29.45;13.15;;;;;;;;;;5078067;28;20024;-86
2022/01/22 05:21:22;;;;;;;28.17;12.95;;;;;;;;;;5078863;28;20032;-85
2022/01/22 05:23:49;;;;;;;28.50;13.30;;;;;;;;;;5060967;28;20025;-86
2022/01/22 05:36:58;;;;;;;32.13;12.13;;;;;;;;;;5077107;28;20504;-84
2022/01/22 05:39:24;;;;;;;26.27;12.48;;;;;;;;;;5094051;28;20040;-84
2022/01/22 05:41:51;;;;;;;35.85;11.65;;;;;;;;;;5080031;28;20021;-85
2022/01/22 05:44:18;;;;;;;28.77;12.15;;;;;;;;;;5078700;28;20086;-85
2022/01/22 05:46:44;;;;;;;22.85;11.68;;;;;;;;;;5077350;28;20024;-85
2022/01/22 05:49:10;;;;;;;31.67;11.63;;;;;;;;;;5077268;28;20039;-86
2022/01/22 05:51:39;;;;;;;30.55;12.38;;;;;;;;;;5091495;28;20060;-85
2022/01/22 05:54:31;;;;;;;30.52;12.40;;;;;;;;;;5077795;28;20392;-85
2022/01/22 05:59:42;;;;;;;21.58;10.95;;;;;;;;;;5084120;28;20151;-85
2022/01/22 06:02:09;;;;;;;32.20;12.88;;;;;;;;;;5081773;28;20526;-84
2022/01/22 06:04:35;;;;;;;30.13;12.93;;;;;;;;;;5075027;28;20464;-85
2022/01/22 06:07:02;;;;;;;32.83;12.60;;;;;;;;;;5090407;28;20104;-84
2022/01/22 06:09:28;;;;;;;27.52;12.70;;;;;;;;;;5089876;28;20625;-84
2022/01/22 06:14:33;;;;;;;26.10;12.02;;;;;;;;;;5078232;28;20488;-85
2022/01/22 06:16:59;;;;;;;23.33;11.07;;;;;;;;;;5090113;28;20029;-85
2022/01/22 06:19:25;;;;;;;25.88;11.88;;;;;;;;;;5091924;28;20041;-85
2022/01/22 06:21:51;;;;;;;21.00;10.63;;;;;;;;;;5073760;28;20522;-85
2022/01/22 06:24:18;;;;;;;27.73;11.52;;;;;;;;;;5070942;28;20036;-85
2022/01/22 06:26:44;;;;;;;32.00;12.18;;;;;;;;;;5063658;28;20488;-85
2022/01/22 06:29:10;;;;;;;25.20;11.52;;;;;;;;;;5075752;28;20035;-85
2022/01/22 06:31:36;;;;;;;30.80;11.05;;;;;;;;;;5091056;28;20361;-84
2022/01/22 06:34:03;;;;;;;28.10;11.05;;;;;;;;;;5091215;28;20024;-85
2022/01/22 06:36:29;;;;;;;26.05;11.25;;;;;;;;;;5091961;28;20070;-86
2022/01/22 06:38:59;;;;;;;24.50;12.52;;;;;;;;;;5075329;28;20107;-85
2022/01/22 06:41:44;;;;;;;30.08;11.60;;;;;;;;;;5078140;28;20498;-85
2022/01/22 06:44:11;;;;;;;22.42;11.40;;;;;;;;;;5079525;28;20024;-84
2022/01/22 06:46:37;;;;;;;21.33;11.00;;;;;;;;;;5091269;28;20039;-84
2022/01/22 06:49:03;;;;;;;26.17;10.38;;;;;;;;;;5076734;28;20107;-85
2022/01/22 06:51:29;;;;;;;35.03;11.38;;;;;;;;;;5076851;28;20032;-86
2022/01/22 06:53:55;;;;;;;37.65;12.35;;;;;;;;;;5075443;28;20013;-85
2022/01/22 06:56:24;;;;;;;25.30;11.13;;;;;;;;;;5092066;28;20115;-86
2022/01/22 06:58:50;;;;;;;29.15;10.52;;;;;;;;;;5076626;28;20025;-85
2022/01/22 07:01:16;;;;;;;32.17;11.90;;;;;;;;;;5057133;28;20705;-84
2022/01/22 07:03:42;;;;;;;30.38;11.20;;;;;;;;;;5056992;28;20025;-85
2022/01/22 07:06:08;;;;;;;27.65;11.52;;;;;;;;;;5056132;28;20461;-85
2022/01/22 07:08:34;;;;;;;23.23;11.68;;;;;;;;;;5071331;28;20036;-85
2022/01/22 07:11:00;;;;;;;19.48;11.18;;;;;;;;;;5080932;28;20024;-85
2022/01/22 07:13:26;;;;;;;29.45;11.10;;;;;;;;;;5074918;28;20364;-85
2022/01/22 07:15:52;;;;;;;30.98;10.93;;;;;;;;;;5070787;28;20083;-85
2022/01/22 07:18:18;;;;;;;29.17;11.65;;;;;;;;;;5073514;28;20055;-85
2022/01/22 07:20:45;;;;;;;23.13;11.15;;;;;;;;;;5076341;28;20036;-84
2022/01/22 07:23:31;;;;;;;19.55;10.30;;;;;;;;;;5076279;28;20040;-84
2022/01/22 07:25:57;;;;;;;32.55;10.57;;;;;;;;;;5092045;28;20484;-85
2022/01/22 07:28:23;;;;;;;22.58;10.68;;;;;;;;;;5073307;28;20025;-85
2022/01/22 07:30:49;;;;;;;30.92;11.60;;;;;;;;;;5071047;28;20032;-85
2022/01/22 07:33:17;;;;;;;27.77;10.48;;;;;;;;;;5056699;28;20056;-85
2022/01/22 07:35:43;;;;;;;28.42;10.98;;;;;;;;;;5056904;28;20032;-85
2022/01/22 07:38:10;;;;;;;27.35;10.73;;;;;;;;;;5070242;28;20036;-87
2022/01/22 07:40:36;;;;;;;22.08;10.57;;;;;;;;;;5060568;28;20032;-86
2022/01/22 07:43:02;;;;;;;30.83;11.10;;;;;;;;;;5077352;28;20024;-86
2022/01/22 07:45:28;;;;;;;25.63;9.18;;;;;;;;;;5076592;28;20021;-86
2022/01/22 07:47:54;;;;;;;27.55;10.15;;;;;;;;;;5076327;28;20070;-84
2022/01/22 07:50:20;;;;;;;21.73;10.90;;;;;;;;;;5091885;28;20063;-86
2022/01/22 07:52:46;;;;;;;25.25;10.23;;;;;;;;;;5092046;28;20024;-86
2022/01/22 07:55:12;;;;;;;32.55;11.60;;;;;;;;;;5069359;28;20032;-86
2022/01/22 07:57:38;;;;;;;32.03;11.85;;;;;;;;;;5088784;28;20451;-86
2022/01/22 08:00:06;;;;;;;28.75;10.75;;;;;;;;;;5086610;28;20024;-84
2022/01/22 08:02:32;;;;;;;26.02;11.07;;;;;;;;;;5088426;28;20021;-86
2022/01/22 08:04:58;;;;;;;36.42;11.95;;;;;;;;;;5074661;28;20499;-86
2022/01/22 08:07:24;;;;;;;21.42;10.38;;;;;;;;;;5088380;28;20032;-86
2022/01/22 08:09:50;;;;;;;29.45;11.70;;;;;;;;;;5090050;28;20438;-87
2022/01/22 08:12:17;;;;;;;31.85;12.15;;;;;;;;;;5073869;28;20480;-86
2022/01/22 08:14:43;;;;;;;37.65;11.23;;;;;;;;;;5089227;28;20024;-87
2022/01/22 08:17:09;;;;;;;29.23;10.93;;;;;;;;;;5092366;28;20025;-86
2022/01/22 08:19:36;;;;;;;27.13;9.75;;;;;;;;;;5085231;28;20039;-85
2022/01/22 08:22:02;;;;;;;31.92;12.70;;;;;;;;;;5073381;28;20102;-85
2022/01/22 08:24:28;;;;;;;32.20;11.00;;;;;;;;;;5056305;28;20483;-87
2022/01/22 08:27:11;;;;;;;33.65;12.27;;;;;;;;;;5078663;28;20020;-86
2022/01/22 08:29:41;;;;;;;31.85;12.00;;;;;;;;;;5077400;28;20514;-86
2022/01/22 08:37:27;;;;;;;21.45;12.07;;;;;;;;;;5071696;28;20048;-86
2022/01/22 08:39:53;;;;;;;30.40;12.40;;;;;;;;;;5056254;28;20040;-85
2022/01/22 08:42:20;;;;;;;31.55;12.02;;;;;;;;;;5079007;28;20020;-86
2022/01/22 08:44:47;;;;;;;27.58;11.85;;;;;;;;;;5075790;28;20120;-87
2022/01/22 08:47:16;;;;;;;31.55;12.52;;;;;;;;;;5091111;28;20024;-86
2022/01/22 08:49:55;;;;;;;39.22;12.63;;;;;;;;;;5088443;28;20020;-86
2022/01/22 08:52:26;;;;;;;30.73;10.70;;;;;;;;;;5078671;28;20036;-86
2022/01/22 08:54:55;;;;;;;30.70;12.57;;;;;;;;;;5072832;28;20017;-86
2022/01/22 08:57:21;;;;;;;23.92;11.75;;;;;;;;;;5090743;28;20381;-85
2022/01/22 08:59:47;;;;;;;32.03;11.98;;;;;;;;;;5076480;28;20025;-84
2022/01/22 09:02:15;;;;;;;23.85;12.48;;;;;;;;;;5075462;28;20055;-86
2022/01/22 09:04:41;;;;;;;22.02;11.00;;;;;;;;;;5103414;28;20043;-86
2022/01/22 09:07:07;;;;;;;22.23;11.05;;;;;;;;;;5094285;28;20059;-90
2022/01/22 09:09:36;;;;;;;24.83;11.38;;;;;;;;;;5101059;28;20035;-86
2022/01/22 09:12:07;;;;;;;32.22;12.10;;;;;;;;;;5089385;28;20040;-87
2022/01/22 09:14:33;;;;;;;21.95;10.82;;;;;;;;;;5084962;28;20029;-86
2022/01/22 09:17:00;;;;;;;30.65;10.25;;;;;;;;;;5073853;28;20028;-89
2022/01/22 09:19:33;;;;;;;25.05;9.93;;;;;;;;;;5074736;28;20048;-89
2022/01/22 09:22:00;;;;;;;30.67;12.07;;;;;;;;;;5090121;28;20025;-88
2022/01/22 09:24:26;;;;;;;23.50;11.57;;;;;;;;;;5097304;28;20029;-88
2022/01/22 09:26:52;;;;;;;31.52;11.15;;;;;;;;;;5111578;28;20055;-91
2022/01/22 09:29:18;;;;;;;28.30;11.30;;;;;;;;;;5112280;28;20028;-93
2022/01/22 09:31:46;;;;;;;23.90;11.20;;;;;;;;;;5090175;28;20805;-90
2022/01/22 09:34:14;;;;;;;27.02;12.55;;;;;;;;;;5053797;28;20029;-89
2022/01/22 09:36:40;;;;;;;36.20;12.45;;;;;;;;;;5053087;28;20465;-90
2022/01/22 09:39:06;;;;;;;32.53;12.70;;;;;;;;;;5069035;28;20028;-91
2022/01/22 09:41:32;;;;;;;32.67;13.18;;;;;;;;;;5072124;28;20027;-89
2022/01/22 09:43:58;;;;;;;26.95;13.20;;;;;;;;;;5074838;28;20013;-89
2022/01/22 09:46:26;;;;;;;32.28;12.77;;;;;;;;;;5087912;28;20055;-90
2022/01/22 09:48:52;;;;;;;30.77;14.00;;;;;;;;;;5089020;28;20502;-88
2022/01/22 09:51:18;;;;;;;28.27;12.23;;;;;;;;;;5089711;28;20116;-90
2022/01/22 09:53:45;;;;;;;29.67;13.57;;;;;;;;;;5088338;28;20464;-90
2022/01/22 09:56:18;;;;;;;28.95;12.68;;;;;;;;;;5088336;28;20029;-88
2022/01/22 09:58:44;;;;;;;29.48;13.48;;;;;;;;;;5101628;28;20080;-88
2022/01/22 10:01:19;;;;;;;39.28;13.57;;;;;;;;;;5077145;28;20048;-88
2022/01/22 10:03:45;;;;;;;32.28;13.60;;;;;;;;;;5090529;28;20048;-90
2022/01/22 10:06:19;;;;;;;30.92;14.15;;;;;;;;;;5072708;28;20040;-89
2022/01/22 10:08:45;;;;;;;34.25;14.50;;;;;;;;;;5061614;28;20055;-90
2022/01/22 10:11:21;;;;;;;30.75;13.43;;;;;;;;;;5058266;28;20110;-90
2022/01/22 10:13:50;;;;;;;26.90;13.70;;;;;;;;;;5062342;28;20066;-91
2022/01/22 10:16:19;;;;;;;34.83;14.40;;;;;;;;;;5077070;28;20016;-88
2022/01/22 10:18:45;;;;;;;32.47;13.77;;;;;;;;;;5074908;28;20028;-86
2022/01/22 10:21:13;;;;;;;29.80;13.57;;;;;;;;;;5078173;28;20028;-86
2022/01/22 10:23:42;;;;;;;37.67;13.48;;;;;;;;;;5076736;28;20055;-88
2022/01/22 10:26:12;;;;;;;34.92;13.38;;;;;;;;;;5072622;28;20120;-85
2022/01/22 10:28:39;;;;;;;31.23;13.23;;;;;;;;;;5056816;28;20032;-86
2022/01/22 10:31:09;;;;;;;32.75;13.82;;;;;;;;;;5074522;28;20052;-87
2022/01/22 10:33:36;;;;;;;26.77;12.73;;;;;;;;;;5060134;28;20021;-87
2022/01/22 10:36:14;;;;;;;30.50;13.23;;;;;;;;;;5056134;28;20040;-87
2022/01/22 10:38:50;;;;;;;32.38;13.38;;;;;;;;;;5072305;28;20025;-87
2022/01/22 10:41:35;;;;;;;32.83;13.90;;;;;;;;;;5056235;28;20024;-87
2022/01/22 10:44:02;;;;;;;35.42;13.68;;;;;;;;;;5057336;28;20055;-88
2022/01/22 10:46:43;;;;;;;29.80;13.10;;;;;;;;;;5071996;28;20029;-89
2022/01/22 10:49:12;;;;;;;31.48;14.07;;;;;;;;;;5071021;28;20059;-89
2022/01/22 10:51:52;;;;;;;30.60;13.73;;;;;;;;;;5071346;28;20036;-88
2022/01/22 10:54:20;;;;;;;24.48;13.07;;;;;;;;;;5057738;28;20047;-88
2022/01/22 10:56:48;;;;;;;29.90;13.18;;;;;;;;;;5055232;28;20029;-89
2022/01/22 10:59:17;;;;;;;24.05;13.07;;;;;;;;;;5071790;28;20032;-89
2022/01/22 11:01:47;;;;;;;30.45;13.32;;;;;;;;;;5055973;28;20547;-88
2022/01/22 11:04:15;;;;;;;25.08;12.38;;;;;;;;;;5056277;28;20032;-90
2022/01/22 11:06:49;;;;;;;27.35;12.65;;;;;;;;;;5055237;28;20112;-87
2022/01/22 11:09:18;;;;;;;21.13;11.55;;;;;;;;;;5057287;28;20021;-89
2022/01/22 11:11:44;;;;;;;29.05;12.88;;;;;;;;;;5056854;28;20531;-88
2022/01/22 11:14:11;;;;;;;26.42;12.88;;;;;;;;;;5067816;28;20033;-88
2022/01/22 11:16:39;;;;;;;24.77;12.07;;;;;;;;;;5088196;28;20496;-88
2022/01/22 11:19:06;;;;;;;28.50;12.82;;;;;;;;;;5090260;28;20025;-84
2022/01/22 11:21:32;;;;;;;29.35;11.95;;;;;;;;;;5075393;28;20117;-85
2022/01/22 11:23:59;;;;;;;22.00;11.65;;;;;;;;;;5093172;28;20032;-86
2022/01/22 11:26:25;;;;;;;20.52;11.30;;;;;;;;;;5069981;28;20029;-86
2022/01/22 11:28:52;;;;;;;29.77;12.07;;;;;;;;;;5072649;28;20036;-86
2022/01/22 11:31:20;;;;;;;22.10;10.98;;;;;;;;;;5062574;28;20027;-85
2022/01/22 11:33:47;;;;;;;22.08;11.27;;;;;;;;;;5057992;28;20032;-86
2022/01/22 11:36:18;;;;;;;23.02;11.45;;;;;;;;;;5056595;28;20488;-86
2022/01/22 11:38:44;;;;;;;;;;;;;;;;;;5058383;28;20025;-85
2022/01/22 11:41:13;;;;;;;20.33;9.75;;;;;;;;;;5074227;28;20334;-86
2022/01/22 11:44:32;;;;;;;19.75;11.35;;;;;;;;;;5072446;28;20074;-86
2022/01/22 11:46:43;;;;;;;21.65;12.07;;;;;;;;;;5056397;28;20052;-85
2022/01/22 11:49:09;;;;;;;20.13;10.23;;;;;;;;;;5063390;28;20008;-86
2022/01/22 11:51:35;;;;;;;15.95;9.00;;;;;;;;;;5093205;28;20104;-84
2022/01/22 11:54:01;;;;;;;17.55;9.70;;;;;;;;;;5092616;28;20112;-86
2022/01/22 11:56:31;;;;;;;18.05;9.35;;;;;;;;;;5077625;28;20020;-86
2022/01/22 11:59:02;;;;;;;17.17;9.77;;;;;;;;;;5085492;28;20365;-85
2022/01/22 12:01:40;;;;;;;13.32;8.23;;;;;;;;;;5092213;28;20439;-86
2022/01/22 12:04:08;;;;;;;15.43;8.25;;;;;;;;;;5076444;28;20035;-88
2022/01/22 12:06:35;;;;;;;14.65;7.35;;;;;;;;;;5076262;28;20036;-89
2022/01/22 12:09:04;;;;;;;10.75;6.70;;;;;;;;;;5078806;28;20027;-87
2022/01/22 12:14:41;;;;;;;12.88;8.10;;;;;;;;;;5077844;28;20133;-87
2022/01/22 12:17:13;;;;;;;18.42;8.57;;;;;;;;;;5076128;28;20058;-87
2022/01/22 12:19:47;;;;;;;14.52;9.25;;;;;;;;;;5060937;28;20036;-88
2022/01/22 12:22:32;;;;;;;15.32;9.10;;;;;;;;;;5090663;28;20024;-87
2022/01/22 12:25:02;;;;;;;15.57;9.02;;;;;;;;;;5074106;28;20452;-87
2022/01/22 12:27:47;;;;;;;21.98;10.13;;;;;;;;;;5073214;28;20025;-87
2022/01/22 12:30:14;;;;;;;18.33;8.98;;;;;;;;;;5072115;28;20025;-88
2022/01/22 12:32:44;;;;;;;18.52;9.80;;;;;;;;;;5071614;28;20064;-87
2022/01/22 12:35:12;;;;;;;18.73;8.68;;;;;;;;;;5074734;28;20020;-89
2022/01/22 12:37:42;;;;;;;18.33;9.98;;;;;;;;;;5092143;28;20115;-88
2022/01/22 12:40:08;;;;;;;17.02;9.15;;;;;;;;;;5091994;28;20115;-89
2022/01/22 12:42:51;;;;;;;14.02;8.57;;;;;;;;;;5075886;28;20032;-85
2022/01/22 12:45:18;;;;;;;21.77;10.30;;;;;;;;;;5067342;28;20032;-87
2022/01/22 12:47:46;;;;;;;22.02;10.35;;;;;;;;;;5071302;28;20031;-90
2022/01/22 12:50:15;;;;;;;18.70;9.82;;;;;;;;;;5106952;27;20020;-92
2022/01/22 12:52:45;;;;;;;20.02;8.90;;;;;;;;;;5083636;28;20032;-90
2022/01/22 12:55:39;;;;;;;14.98;8.65;;;;;;;;;;5090747;28;20032;-89
2022/01/22 12:58:07;;;;;;;24.05;9.90;;;;;;;;;;5090447;28;20438;-89
2022/01/22 13:00:42;;;;;;;18.88;9.57;;;;;;;;;;5090139;28;20044;-89
2022/01/22 13:03:11;;;;;;;19.63;9.07;;;;;;;;;;5090913;28;20021;-90
2022/01/22 13:05:37;;;;;;;19.60;10.38;;;;;;;;;;5090104;28;20058;-89
2022/01/22 13:08:29;;;;;;;19.95;10.32;;;;;;;;;;5074438;28;20103;-89
2022/01/22 13:11:18;;;;;;;17.85;9.75;;;;;;;;;;5075468;28;20092;-90
2022/01/22 13:14:05;;;;;;;20.55;8.85;;;;;;;;;;5075885;28;20100;-90
2022/01/22 13:16:31;;;;;;;18.80;10.00;;;;;;;;;;5074902;28;20059;-88
2022/01/22 13:22:05;;;;;;;16.23;8.90;;;;;;;;;;5573382;22;20416;-86
2022/01/22 13:24:31;;;;;;;26.42;10.23;;;;;;;;;;5058538;28;20032;-85
2022/01/22 13:27:35;;;;;;;22.45;10.55;;;;;;;;;;5059591;28;20060;-89
2022/01/22 13:33:06;;;;;;;23.50;12.00;;;;;;;;;;5802782;22;20050;-90
2022/01/22 13:35:50;;;;;;;19.77;10.68;;;;;;;;;;5080351;28;20028;-94
2022/01/22 13:47:46;;;;;;;22.63;10.10;;;;;;;;;;5018629;28;20057;-89
2022/01/22 13:50:25;;;;;;;19.80;10.17;;;;;;;;;;4989029;28;20045;-87
2022/01/22 13:52:57;;;;;;;19.92;9.95;;;;;;;;;;5078607;28;20063;-88
2022/01/22 14:04:48;;;;;;;22.38;9.85;;;;;;;;;;5048896;28;20028;-83
2022/01/22 14:07:19;;;;;;;19.33;10.95;;;;;;;;;;5065737;28;20115;-85
2022/01/22 14:09:56;;;;;;;18.75;8.55;;;;;;;;;;5103197;28;20063;-82
2022/01/22 14:12:23;;;;;;;15.40;7.95;;;;;;;;;;5101969;28;20062;-84
2022/01/22 14:15:10;;;;;;;21.15;9.27;;;;;;;;;;5102224;28;20031;-84
2022/01/22 14:17:39;;;;;;;14.57;9.27;;;;;;;;;;5064104;28;20130;-86
2022/01/22 14:20:11;;;;;;;18.52;10.02;;;;;;;;;;5097678;28;20028;-85
2022/01/22 14:22:56;;;;;;;19.88;9.90;;;;;;;;;;5100190;28;20032;-86
2022/01/22 14:25:22;;;;;;;18.63;10.50;;;;;;;;;;5097582;28;20051;-86
2022/01/22 14:27:55;;;;;;;17.92;10.05;;;;;;;;;;5095242;28;20020;-85
2022/01/22 14:30:38;;;;;;;17.83;10.95;;;;;;;;;;5081943;28;20028;-85
2022/01/22 14:33:05;;;;;;;23.85;12.30;;;;;;;;;;5097922;28;20012;-86
2022/01/22 14:35:32;;;;;;;22.27;11.93;;;;;;;;;;5117762;28;20016;-85
2022/01/22 14:38:18;;;;;;;22.95;11.48;;;;;;;;;;5087890;28;20062;-89
2022/01/22 14:44:00;;;;;;;20.85;11.00;;;;;;;;;;5096945;28;20112;-86
2022/01/22 14:46:28;;;;;;;22.02;10.93;;;;;;;;;;5079337;28;20024;-88
2022/01/22 14:48:54;;;;;;;21.50;12.77;;;;;;;;;;5074683;28;20020;-87
2022/01/22 14:51:20;;;;;;;26.65;13.65;;;;;;;;;;5076904;28;20021;-88
2022/01/22 14:53:46;;;;;;;22.23;12.73;;;;;;;;;;5079186;28;20040;-88
2022/01/22 14:56:19;;;;;;;24.95;13.50;;;;;;;;;;5096948;28;20055;-88
2022/01/22 14:58:45;;;;;;;23.42;13.63;;;;;;;;;;5091528;28;20113;-89
2022/01/22 15:01:11;;;;;;;29.52;15.02;;;;;;;;;;5091869;28;20027;-87
2022/01/22 15:03:37;;;;;;;21.20;12.98;;;;;;;;;;5092436;28;20072;-87
2022/01/22 15:06:03;;;;;;;27.33;13.98;;;;;;;;;;5117314;28;20024;-88
2022/01/22 15:08:29;;;;;;;26.10;13.93;;;;;;;;;;5148624;22;20074;-83
2022/01/22 15:10:55;;;;;;;24.17;13.43;;;;;;;;;;5092899;28;20027;-84
2022/01/22 15:13:22;;;;;;;22.52;13.77;;;;;;;;;;5118663;27;20011;-84
2022/01/22 15:15:52;;;;;;;22.73;13.20;;;;;;;;;;5123415;28;20024;-83
2022/01/22 15:18:50;;;;;;;28.33;14.48;;;;;;;;;;5111025;28;20016;-84
2022/01/22 15:21:13;;;;;;;27.42;14.10;;;;;;;;;;5118251;28;20023;-84
2022/01/22 15:23:39;;;;;;;23.88;14.00;;;;;;;;;;5099197;28;20024;-83
2022/01/22 15:26:06;;;;;;;25.73;14.35;;;;;;;;;;5118330;27;20038;-83
2022/01/22 15:28:42;;;;;;;25.75;13.43;;;;;;;;;;5119356;27;20019;-84
2022/01/22 15:31:15;;;;;;;30.52;14.77;;;;;;;;;;5116894;28;20053;-86
2022/01/22 15:33:53;;;;;;;31.38;15.25;;;;;;;;;;5117044;28;20073;-85
2022/01/22 15:36:19;;;;;;;27.73;15.18;;;;;;;;;;5105207;28;20100;-85
2022/01/22 15:38:45;;;;;;;44.38;21.65;;;;;;;;;;5105173;27;20427;-86
2022/01/22 15:41:11;;;;;;;33.03;18.00;;;;;;;;;;5113008;27;20031;-83
2022/01/22 15:43:37;;;;;;;37.25;18.27;;;;;;;;;;5131307;27;20061;-85
2022/01/22 15:46:03;;;;;;;30.35;15.88;;;;;;;;;;5110991;28;20134;-85
2022/01/22 15:48:41;;;;;;;27.45;15.63;;;;;;;;;;5097159;28;20499;-84
2022/01/22 15:51:07;;;;;;;29.42;15.35;;;;;;;;;;5113257;28;20487;-85
2022/01/22 15:53:35;;;;;;;31.27;16.15;;;;;;;;;;5108415;27;20023;-86
2022/01/22 15:56:04;;;;;;;29.67;16.40;;;;;;;;;;5137753;27;20485;-86
2022/01/22 15:58:31;;;;;;;29.58;16.90;;;;;;;;;;5120930;27;20513;-86
2022/01/22 16:00:57;;;;;;;33.45;17.02;;;;;;;;;;5134011;27;20043;-86
2022/01/22 16:03:24;;;;;;;37.22;16.50;;;;;;;;;;5103093;28;20048;-85
2022/01/22 16:05:50;;;;;;;34.92;16.92;;;;;;;;;;5116710;27;20084;-83
2022/01/22 16:08:16;;;;;;;37.97;17.75;;;;;;;;;;5115529;28;20027;-84
2022/01/22 16:10:42;;;;;;;31.98;17.48;;;;;;;;;;5115158;28;20088;-84
2022/01/22 16:13:08;;;;;;;30.75;16.25;;;;;;;;;;5115603;28;20394;-85
2022/01/22 16:15:34;;;;;;;38.70;16.42;;;;;;;;;;5115764;28;20019;-85
2022/01/22 16:18:01;;;;;;;30.63;15.77;;;;;;;;;;5115061;28;20083;-84
2022/01/22 16:20:28;;;;;;;29.98;17.42;;;;;;;;;;5116025;28;20099;-84
2022/01/22 16:22:54;;;;;;;31.88;16.90;;;;;;;;;;5114345;28;20027;-84
2022/01/22 16:25:20;;;;;;;31.35;16.88;;;;;;;;;;5115015;28;20030;-84
2022/01/22 16:27:46;;;;;;;30.02;15.38;;;;;;;;;;5113486;28;20035;-86